createdAt,value
2019-02-26T00:00:34.361Z,1.30
2019-02-26T00:03:04.653Z,1.30
2019-02-26T00:05:33.238Z,1.30
2019-02-26T00:08:02.628Z,1.30
2019-02-26T00:10:32.147Z,1.30
2019-02-26T00:13:01.364Z,1.30
2019-02-26T00:15:33.394Z,1.30
2019-02-26T00:18:00.011Z,1.20
2019-02-26T00:20:29.661Z,1.20
2019-02-26T00:22:59.756Z,1.20
2019-02-26T00:25:28.691Z,1.20
2019-02-26T00:27:58.673Z,1.20
2019-02-26T00:30:27.128Z,1.20
2019-02-26T00:32:57.739Z,1.10
2019-02-26T00:35:27.474Z,1.10
2019-02-26T00:37:55.938Z,1.10
2019-02-26T00:40:24.416Z,1.10
2019-02-26T00:42:55.037Z,1.00
2019-02-26T00:45:26.869Z,1.10
2019-02-26T00:47:53.118Z,1.10
2019-02-26T00:50:21.553Z,1.00
2019-02-26T00:52:49.956Z,1.00
2019-02-26T00:55:18.563Z,0.90
2019-02-26T00:57:46.987Z,0.90
2019-02-26T01:00:16.525Z,0.90
2019-02-26T01:02:45.104Z,0.80
2019-02-26T01:05:15.887Z,0.80
2019-02-26T01:07:46.735Z,0.80
2019-02-26T01:10:16.302Z,0.80
2019-02-26T01:12:45.333Z,0.70
2019-02-26T01:15:20.782Z,0.70
2019-02-26T01:17:49.211Z,0.60
2019-02-26T01:20:19.528Z,0.60
2019-02-26T01:22:48.625Z,0.60
2019-02-26T01:25:18.552Z,0.60
2019-02-26T01:27:48.281Z,0.50
2019-02-26T01:30:21.120Z,0.60
2019-02-26T01:32:47.730Z,0.60
2019-02-26T01:35:16.254Z,0.60
2019-02-26T01:37:44.754Z,0.60
2019-02-26T01:40:16.373Z,0.60
2019-02-26T01:42:47.187Z,0.60
2019-02-26T01:45:14.555Z,0.70
2019-02-26T01:47:45.578Z,0.70
2019-02-26T01:50:15.974Z,0.70
2019-02-26T01:52:43.789Z,0.70
2019-02-26T01:55:12.725Z,0.70
2019-02-26T01:57:43.361Z,0.70
2019-02-26T02:00:13.213Z,0.60
2019-02-26T02:02:41.685Z,0.60
2019-02-26T02:05:10.451Z,0.60
2019-02-26T02:07:38.924Z,0.60
2019-02-26T02:10:09.975Z,0.60
2019-02-26T02:12:39.720Z,0.60
2019-02-26T02:15:12.367Z,0.60
2019-02-26T02:17:40.970Z,0.60
2019-02-26T02:20:13.106Z,0.60
2019-02-26T02:22:44.250Z,0.60
2019-02-26T02:25:12.696Z,0.60
2019-02-26T02:27:41.117Z,0.60
2019-02-26T02:30:22.679Z,0.60
2019-02-26T02:32:51.041Z,0.60
2019-02-26T02:35:19.096Z,0.60
2019-02-26T02:37:48.035Z,0.60
2019-02-26T02:40:16.547Z,0.70
2019-02-26T02:42:48.419Z,0.70
2019-02-26T02:45:20.111Z,0.70
2019-02-26T02:47:45.585Z,0.70
2019-02-26T02:50:18.202Z,0.80
2019-02-26T02:52:45.769Z,0.80
2019-02-26T02:55:17.197Z,0.80
2019-02-26T02:57:46.483Z,0.80
2019-02-26T03:00:16.094Z,0.90
2019-02-26T03:02:46.809Z,0.90
2019-02-26T03:05:14.642Z,1.00
2019-02-26T03:07:45.876Z,1.00
2019-02-26T03:10:16.005Z,1.00
2019-02-26T03:12:48.630Z,1.00
2019-02-26T03:15:15.396Z,1.10
2019-02-26T03:17:43.809Z,1.10
2019-02-26T03:20:13.487Z,1.20
2019-02-26T03:22:45.573Z,1.20
2019-02-26T03:25:17.657Z,1.20
2019-02-26T03:27:46.227Z,1.30
2019-02-26T03:30:31.913Z,1.30
2019-02-26T03:32:58.638Z,1.30
2019-02-26T03:35:23.556Z,1.40
2019-02-26T03:37:54.868Z,1.40
2019-02-26T03:40:23.990Z,1.40
2019-02-26T03:42:52.609Z,1.40
2019-02-26T03:45:24.884Z,1.40
2019-02-26T03:47:51.289Z,1.40
2019-02-26T03:50:19.716Z,1.50
2019-02-26T03:52:48.129Z,1.50
2019-02-26T03:55:18.938Z,1.50
2019-02-26T03:57:47.404Z,1.50
2019-02-26T04:00:20.039Z,1.60
2019-02-26T04:02:51.055Z,1.60
2019-02-26T04:05:18.484Z,1.60
2019-02-26T04:07:49.882Z,1.60
2019-02-26T04:10:17.104Z,1.60
2019-02-26T04:12:48.970Z,1.60
2019-02-26T04:15:19.095Z,1.70
2019-02-26T04:17:47.608Z,1.70
2019-02-26T04:20:16.625Z,1.70
2019-02-26T04:22:48.858Z,1.80
2019-02-26T04:25:22.138Z,1.80
2019-02-26T04:28:10.844Z,1.80
2019-02-26T04:30:53.502Z,1.90
2019-02-26T04:33:41.416Z,1.90
2019-02-26T04:36:24.638Z,1.90
2019-02-26T04:39:19.019Z,1.90
2019-02-26T04:42:11.205Z,2.00
2019-02-26T04:45:09.202Z,2.00
2019-02-26T04:47:52.466Z,2.00
2019-02-26T04:50:23.027Z,2.00
2019-02-26T04:52:50.097Z,2.00
2019-02-26T04:55:18.508Z,2.00
2019-02-26T04:57:50.599Z,2.00
2019-02-26T05:00:17.085Z,2.00
2019-02-26T05:02:45.810Z,2.00
2019-02-26T05:05:14.253Z,2.00
2019-02-26T05:07:45.044Z,2.00
2019-02-26T05:10:13.034Z,2.00
2019-02-26T05:12:41.457Z,2.00
2019-02-26T05:15:13.890Z,2.00
2019-02-26T05:17:40.417Z,1.90
2019-02-26T05:20:12.433Z,1.90
2019-02-26T05:22:39.085Z,1.80
2019-02-26T05:25:11.021Z,1.80
2019-02-26T05:27:39.990Z,1.70
2019-02-26T05:30:12.453Z,1.70
2019-02-26T05:32:39.674Z,1.70
2019-02-26T05:35:08.176Z,1.60
2019-02-26T05:37:40.175Z,1.50
2019-02-26T05:40:10.421Z,1.50
2019-02-26T05:42:37.725Z,1.40
2019-02-26T05:45:09.128Z,1.40
2019-02-26T05:47:37.032Z,1.40
2019-02-26T05:50:12.981Z,1.30
2019-02-26T05:52:37.790Z,1.30
2019-02-26T05:55:06.892Z,1.20
2019-02-26T05:57:35.326Z,1.20
2019-02-26T06:00:08.234Z,1.20
2019-02-26T06:02:38.818Z,1.10
2019-02-26T06:05:07.677Z,1.10
2019-02-26T06:07:38.580Z,1.10
2019-02-26T06:10:06.394Z,1.00
2019-02-26T06:12:35.590Z,1.00
2019-02-26T06:15:08.012Z,1.00
2019-02-26T06:17:40.628Z,0.90
2019-02-26T06:20:12.891Z,0.90
2019-02-26T06:22:41.326Z,0.90
2019-02-26T06:25:18.347Z,0.90
2019-02-26T06:27:40.322Z,0.80
2019-02-26T06:30:13.381Z,0.80
2019-02-26T06:32:44.609Z,0.80
2019-02-26T06:35:18.637Z,0.80
2019-02-26T06:37:46.336Z,0.80
2019-02-26T06:40:16.225Z,0.80
2019-02-26T06:42:44.754Z,0.70
2019-02-26T06:45:16.537Z,0.70
2019-02-26T06:47:45.715Z,0.70
2019-02-26T06:50:17.914Z,0.70
2019-02-26T06:52:47.516Z,0.70
2019-02-26T06:55:15.328Z,0.70
2019-02-26T06:57:47.181Z,0.70
2019-02-26T07:00:18.692Z,0.70
2019-02-26T07:02:46.912Z,0.70
2019-02-26T07:05:15.517Z,0.70
2019-02-26T07:07:43.962Z,0.70
2019-02-26T07:10:18.352Z,0.70
2019-02-26T07:12:46.151Z,0.70
2019-02-26T07:15:16.037Z,0.80
2019-02-26T07:17:46.069Z,0.80
2019-02-26T07:20:14.810Z,0.80
2019-02-26T07:22:44.088Z,0.90
2019-02-26T07:25:16.059Z,0.90
2019-02-26T07:27:43.615Z,0.90
2019-02-26T07:30:12.624Z,1.00
2019-02-26T07:32:43.058Z,1.00
2019-02-26T07:35:13.564Z,1.10
2019-02-26T07:37:41.365Z,1.10
2019-02-26T07:40:15.661Z,1.20
2019-02-26T07:42:44.730Z,1.30
2019-02-26T07:45:15.285Z,1.40
2019-02-26T07:47:45.202Z,1.50
2019-02-26T07:50:14.940Z,1.60
2019-02-26T07:52:44.184Z,1.70
2019-02-26T07:55:14.833Z,1.90
2019-02-26T07:57:45.313Z,2.10
2019-02-26T08:00:16.277Z,2.20
2019-02-26T08:02:44.689Z,2.40
2019-02-26T08:05:13.193Z,2.50
2019-02-26T08:07:43.855Z,2.70
2019-02-26T08:10:14.982Z,2.80
2019-02-26T08:12:44.377Z,2.90
2019-02-26T08:15:15.487Z,3.10
2019-02-26T08:17:47.849Z,3.20
2019-02-26T08:20:15.167Z,3.30
2019-02-26T08:22:43.605Z,3.40
2019-02-26T08:25:13.212Z,3.60
2019-02-26T08:27:41.913Z,3.80
2019-02-26T08:30:14.861Z,3.90
2019-02-26T08:32:42.920Z,4.10
2019-02-26T08:35:11.761Z,4.30
2019-02-26T08:37:40.258Z,4.50
2019-02-26T08:40:11.295Z,4.60
2019-02-26T08:42:39.716Z,4.90
2019-02-26T08:45:15.143Z,5.10
2019-02-26T08:47:43.939Z,5.40
2019-02-26T08:50:14.833Z,5.70
2019-02-26T08:52:44.863Z,6.00
2019-02-26T08:55:18.112Z,6.30
2019-02-26T08:57:45.759Z,6.50
2019-02-26T09:00:19.129Z,6.80
2019-02-26T09:02:50.632Z,6.90
2019-02-26T09:05:17.744Z,7.10
2019-02-26T09:07:47.513Z,7.20
2019-02-26T09:10:17.938Z,7.30
2019-02-26T09:12:48.707Z,7.50
2019-02-26T09:15:18.844Z,7.60
2019-02-26T09:17:47.334Z,7.70
2019-02-26T09:20:17.950Z,7.80
2019-02-26T09:22:50.191Z,7.90
2019-02-26T09:25:16.570Z,8.20
2019-02-26T09:27:45.032Z,8.30
2019-02-26T09:30:16.174Z,8.40
2019-02-26T09:32:44.994Z,8.60
2019-02-26T09:35:19.951Z,8.60
2019-02-26T09:37:49.946Z,8.70
2019-02-26T09:40:23.461Z,8.70
2019-02-26T09:42:54.272Z,8.80
2019-02-26T09:45:26.083Z,9.00
2019-02-26T09:47:55.726Z,9.10
2019-02-26T09:50:23.986Z,9.30
2019-02-26T09:52:55.512Z,9.60
2019-02-26T09:55:22.613Z,9.90
2019-02-26T09:57:51.024Z,10.20
2019-02-26T10:00:23.634Z,10.40
2019-02-26T10:02:52.137Z,10.50
2019-02-26T10:05:20.752Z,10.50
2019-02-26T10:07:51.118Z,10.40
2019-02-26T10:10:20.664Z,10.30
2019-02-26T10:12:51.153Z,10.20
2019-02-26T10:15:19.707Z,10.10
2019-02-26T10:17:48.484Z,10.00
2019-02-26T10:20:27.962Z,10.00
2019-02-26T10:22:57.803Z,10.00
2019-02-26T10:25:26.395Z,10.20
2019-02-26T10:27:55.617Z,10.30
2019-02-26T10:30:24.097Z,10.40
2019-02-26T10:32:52.552Z,10.50
2019-02-26T10:35:32.463Z,10.50
2019-02-26T10:37:57.573Z,10.70
2019-02-26T10:40:35.117Z,10.80
2019-02-26T10:42:58.069Z,11.10
2019-02-26T10:45:27.729Z,11.40
2019-02-26T10:47:58.743Z,12.00
2019-02-26T10:50:31.386Z,12.70
2019-02-26T10:53:01.409Z,13.50
2019-02-26T10:55:35.341Z,14.40
2019-02-26T10:57:58.603Z,15.20
2019-02-26T11:00:32.219Z,16.00
2019-02-26T11:02:59.672Z,16.70
2019-02-26T11:05:28.086Z,17.50
2019-02-26T11:07:59.768Z,18.20
2019-02-26T11:10:26.774Z,18.90
2019-02-26T11:12:58.540Z,19.60
2019-02-26T11:15:26.821Z,20.20
2019-02-26T11:17:55.902Z,20.70
2019-02-26T11:20:27.833Z,21.20
2019-02-26T11:22:54.622Z,21.70
2019-02-26T11:25:24.808Z,22.10
2019-02-26T11:27:53.288Z,22.30
2019-02-26T11:30:26.065Z,22.50
2019-02-26T11:32:58.622Z,22.80
2019-02-26T11:35:25.363Z,23.00
2019-02-26T11:37:55.368Z,23.20
2019-02-26T11:40:27.394Z,23.50
2019-02-26T11:42:55.450Z,23.80
2019-02-26T11:45:24.803Z,24.00
2019-02-26T11:47:55.183Z,24.00
2019-02-26T11:50:28.205Z,24.00
2019-02-26T11:52:55.055Z,23.90
2019-02-26T11:55:26.161Z,24.00
2019-02-26T11:57:53.863Z,24.20
2019-02-26T12:00:33.834Z,24.20
2019-02-26T12:02:58.769Z,24.20
2019-02-26T12:05:31.363Z,24.40
2019-02-26T12:07:58.815Z,24.70
2019-02-26T12:10:29.645Z,25.00
2019-02-26T12:13:00.053Z,25.30
2019-02-26T12:15:30.234Z,25.40
2019-02-26T12:17:58.747Z,25.70
2019-02-26T12:20:27.400Z,25.70
2019-02-26T12:22:55.835Z,25.60
2019-02-26T12:25:24.301Z,25.50
2019-02-26T12:27:52.776Z,25.40
2019-02-26T12:30:26.029Z,25.40
2019-02-26T12:32:55.181Z,25.40
2019-02-26T12:35:23.746Z,25.40
2019-02-26T12:37:53.634Z,25.50
2019-02-26T12:40:25.385Z,25.60
2019-02-26T12:42:52.740Z,25.70
2019-02-26T12:45:22.773Z,25.80
2019-02-26T12:47:54.485Z,25.90
2019-02-26T12:50:29.746Z,26.20
2019-02-26T12:52:57.314Z,26.20
2019-02-26T12:55:29.489Z,26.40
2019-02-26T12:57:57.084Z,26.50
2019-02-26T13:00:26.463Z,26.60
2019-02-26T13:02:54.913Z,26.50
2019-02-26T13:05:23.356Z,26.50
2019-02-26T13:07:51.806Z,26.40
2019-02-26T13:10:25.045Z,26.40
2019-02-26T13:12:59.005Z,26.30
2019-02-26T13:15:23.797Z,26.30
2019-02-26T13:17:54.480Z,26.50
2019-02-26T13:20:24.860Z,26.50
2019-02-26T13:22:56.187Z,26.70
2019-02-26T13:25:26.743Z,26.80
2019-02-26T13:27:53.621Z,26.80
2019-02-26T13:30:25.870Z,26.80
2019-02-26T13:32:59.783Z,26.50
2019-02-26T13:35:24.751Z,26.20
2019-02-26T13:37:59.468Z,26.00
2019-02-26T13:40:27.897Z,25.90
2019-02-26T13:45:27.537Z,25.70
2019-02-26T13:48:01.044Z,25.50
2019-02-26T13:50:30.308Z,25.30
2019-02-26T13:52:58.855Z,25.10
2019-02-26T13:55:27.357Z,24.60
2019-02-26T13:57:55.765Z,24.00
2019-02-26T14:00:26.621Z,23.30
2019-02-26T14:02:54.489Z,22.90
2019-02-26T14:05:22.961Z,22.60
2019-02-26T14:07:51.548Z,22.20
2019-02-26T14:10:24.116Z,21.50
2019-02-26T14:12:52.668Z,20.80
2019-02-26T14:15:26.060Z,20.20
2019-02-26T14:17:54.670Z,19.50
2019-02-26T14:20:23.152Z,18.90
2019-02-26T14:22:51.592Z,18.40
2019-02-26T14:25:20.358Z,17.90
2019-02-26T14:27:48.797Z,17.50
2019-02-26T14:30:18.157Z,17.20
2019-02-26T14:32:46.670Z,16.80
2019-02-26T14:35:15.534Z,16.50
2019-02-26T14:37:44.028Z,16.10
2019-02-26T14:40:17.625Z,15.90
2019-02-26T14:42:46.342Z,15.70
2019-02-26T14:45:20.372Z,15.40
2019-02-26T14:47:48.903Z,15.20
2019-02-26T14:50:22.378Z,15.00
2019-02-26T14:52:50.813Z,14.90
2019-02-26T14:55:19.331Z,14.70
2019-02-26T14:57:47.748Z,14.50
2019-02-26T15:00:30.455Z,14.30
2019-02-26T15:02:58.882Z,14.20
2019-02-26T15:05:27.383Z,14.10
2019-02-26T15:07:55.804Z,14.00
2019-02-26T15:10:24.385Z,13.90
2019-02-26T15:12:53.150Z,13.70
2019-02-26T15:15:21.614Z,13.70
2019-02-26T15:17:50.053Z,13.60
2019-02-26T15:20:19.770Z,13.50
2019-02-26T15:22:48.254Z,13.40
2019-02-26T15:25:22.465Z,13.30
2019-02-26T15:27:51.219Z,13.20
2019-02-26T15:30:20.672Z,13.10
2019-02-26T15:32:49.329Z,13.00
2019-02-26T15:35:18.350Z,13.00
2019-02-26T15:37:46.792Z,12.90
2019-02-26T15:40:17.428Z,12.80
2019-02-26T15:42:45.905Z,12.80
2019-02-26T15:45:23.909Z,12.70
2019-02-26T15:47:52.917Z,12.60
2019-02-26T15:50:21.968Z,12.50
2019-02-26T15:52:52.620Z,12.50
2019-02-26T15:55:25.881Z,12.40
2019-02-26T15:57:55.365Z,12.30
2019-02-26T16:00:24.610Z,12.20
2019-02-26T16:02:53.664Z,12.10
2019-02-26T16:05:27.342Z,12.00
2019-02-26T16:07:55.820Z,12.00
2019-02-26T16:10:24.319Z,11.90
2019-02-26T16:12:52.725Z,11.80
2019-02-26T16:15:21.258Z,11.60
2019-02-26T16:17:49.714Z,11.50
2019-02-26T16:20:19.634Z,11.30
2019-02-26T16:22:48.124Z,11.20
2019-02-26T16:25:16.759Z,11.10
2019-02-26T16:27:45.161Z,11.00
2019-02-26T16:30:22.308Z,10.80
2019-02-26T16:32:50.734Z,10.70
2019-02-26T16:35:19.257Z,10.60
2019-02-26T16:37:47.736Z,10.50
2019-02-26T16:40:17.385Z,10.40
2019-02-26T16:42:46.837Z,10.30
2019-02-26T16:45:26.175Z,10.20
2019-02-26T16:47:54.669Z,10.10
2019-02-26T16:50:25.673Z,10.00
2019-02-26T16:52:54.103Z,9.80
2019-02-26T16:55:23.135Z,9.70
2019-02-26T16:57:51.729Z,9.60
2019-02-26T17:00:27.716Z,9.40
2019-02-26T17:02:59.995Z,9.30
2019-02-26T17:05:26.494Z,9.20
2019-02-26T17:07:55.243Z,9.00
2019-02-26T17:10:29.436Z,8.90
2019-02-26T17:12:56.466Z,8.80
2019-02-26T17:15:32.750Z,8.60
2019-02-26T17:18:01.254Z,8.50
2019-02-26T17:20:29.702Z,8.30
2019-02-26T17:22:58.327Z,8.20
2019-02-26T17:25:28.953Z,8.10
2019-02-26T17:27:57.533Z,7.90
2019-02-26T17:30:26.158Z,7.80
2019-02-26T17:32:54.681Z,7.70
2019-02-26T17:35:23.127Z,7.60
2019-02-26T17:37:51.649Z,7.50
2019-02-26T17:40:24.100Z,7.40
2019-02-26T17:42:54.255Z,7.30
2019-02-26T17:45:30.937Z,7.20
2019-02-26T17:47:59.377Z,7.00
2019-02-26T17:50:30.822Z,7.00
2019-02-26T17:52:59.259Z,6.90
2019-02-26T17:55:28.084Z,6.80
2019-02-26T17:57:56.596Z,6.70
2019-02-26T18:00:27.018Z,6.60
2019-02-26T18:02:55.748Z,6.50
2019-02-26T18:05:24.276Z,6.40
2019-02-26T18:07:52.701Z,6.30
2019-02-26T18:10:23.278Z,6.20
2019-02-26T18:12:51.711Z,6.10
2019-02-26T18:15:20.840Z,6.00
2019-02-26T18:17:49.457Z,5.90
2019-02-26T18:20:20.948Z,5.80
2019-02-26T18:22:49.386Z,5.70
2019-02-26T18:25:20.949Z,5.60
2019-02-26T18:27:49.588Z,5.60
2019-02-26T18:30:28.397Z,5.50
2019-02-26T18:32:59.002Z,5.40
2019-02-26T18:35:27.089Z,5.30
2019-02-26T18:37:55.566Z,5.20
2019-02-26T18:40:27.902Z,5.20
2019-02-26T18:42:54.425Z,5.00
2019-02-26T18:45:27.859Z,5.00
2019-02-26T18:47:57.338Z,4.90
2019-02-26T18:50:28.579Z,4.80
2019-02-26T18:52:58.168Z,4.80
2019-02-26T18:55:28.430Z,4.70
2019-02-26T18:57:57.325Z,4.70
2019-02-26T19:00:27.665Z,4.60
2019-02-26T19:03:02.993Z,4.50
2019-02-26T19:05:31.897Z,4.40
2019-02-26T19:08:00.367Z,4.30
2019-02-26T19:10:28.838Z,4.30
2019-02-26T19:12:57.374Z,4.20
2019-02-26T19:15:33.179Z,4.10
2019-02-26T19:18:02.757Z,4.10
2019-02-26T19:20:34.963Z,4.00
2019-02-26T19:23:03.466Z,3.90
2019-02-26T19:25:32.107Z,3.90
2019-02-26T19:28:00.633Z,3.80
2019-02-26T19:30:29.055Z,3.70
2019-02-26T19:32:57.493Z,3.70
2019-02-26T19:35:25.929Z,3.60
2019-02-26T19:37:56.948Z,3.50
2019-02-26T19:40:55.204Z,3.50
2019-02-26T19:43:25.709Z,3.50
2019-02-26T19:45:53.948Z,3.40
2019-02-26T19:48:22.630Z,3.30
2019-02-26T19:50:51.064Z,3.30
2019-02-26T19:53:19.480Z,3.30
2019-02-26T19:55:50.042Z,3.20
2019-02-26T19:58:18.817Z,3.20
2019-02-26T20:00:47.350Z,3.10
2019-02-26T20:03:15.862Z,3.00
2019-02-26T20:05:46.518Z,3.00
2019-02-26T20:08:14.510Z,2.90
2019-02-26T20:10:42.956Z,2.90
2019-02-26T20:13:12.681Z,2.90
2019-02-26T20:15:41.463Z,2.90
2019-02-26T20:18:20.241Z,2.80
2019-02-26T20:20:41.025Z,2.80
2019-02-26T20:23:09.669Z,2.80
2019-02-26T20:25:42.525Z,2.80
2019-02-26T20:28:09.006Z,2.80
2019-02-26T20:30:37.413Z,2.70
2019-02-26T20:33:05.848Z,2.60
2019-02-26T20:35:34.357Z,2.60
2019-02-26T20:38:02.832Z,2.60
2019-02-26T20:40:31.297Z,2.50
2019-02-26T20:43:01.845Z,2.50
2019-02-26T20:45:29.825Z,2.50
2019-02-26T20:47:58.245Z,2.50
2019-02-26T20:50:26.777Z,2.40
2019-02-26T20:52:55.313Z,2.40
2019-02-26T20:55:25.681Z,2.30
2019-02-26T20:57:55.502Z,2.40
2019-02-26T21:00:25.281Z,2.30
2019-02-26T21:02:54.134Z,2.30
2019-02-26T21:05:22.581Z,2.30
2019-02-26T21:07:51.116Z,2.20
2019-02-26T21:10:21.297Z,2.20
2019-02-26T21:12:49.702Z,2.10
2019-02-26T21:15:22.520Z,2.10
2019-02-26T21:17:50.999Z,2.00
2019-02-26T21:20:19.421Z,2.00
2019-02-26T21:22:47.847Z,1.90
2019-02-26T21:25:16.506Z,1.90
2019-02-26T21:27:44.997Z,1.80
2019-02-26T21:30:23.885Z,1.80
2019-02-26T21:32:52.393Z,1.80
2019-02-26T21:35:21.355Z,1.80
2019-02-26T21:37:49.881Z,1.80
2019-02-26T21:40:18.451Z,1.70
2019-02-26T21:42:47.025Z,1.70
2019-02-26T21:45:18.953Z,1.70
2019-02-26T21:47:47.429Z,1.60
2019-02-26T21:50:16.300Z,1.60
2019-02-26T21:52:59.055Z,1.50
2019-02-26T21:55:15.959Z,1.50
2019-02-26T21:57:44.404Z,1.40
2019-02-26T22:00:20.516Z,1.40
2019-02-26T22:02:52.029Z,1.40
2019-02-26T22:05:19.257Z,1.40
2019-02-26T22:07:52.035Z,1.40
2019-02-26T22:10:19.385Z,1.40
2019-02-26T22:12:47.996Z,1.40
2019-02-26T22:15:16.835Z,1.30
2019-02-26T22:17:45.540Z,1.30
2019-02-26T22:20:23.407Z,1.30
2019-02-26T22:22:45.476Z,1.30
2019-02-26T22:25:17.096Z,1.20
2019-02-26T22:27:44.326Z,1.20
2019-02-26T22:30:21.540Z,1.20
2019-02-26T22:32:46.949Z,1.10
2019-02-26T22:35:15.437Z,1.10
2019-02-26T22:37:43.981Z,1.10
2019-02-26T22:40:13.746Z,1.00
2019-02-26T22:42:42.276Z,1.00
2019-02-26T22:45:13.421Z,1.00
2019-02-26T22:47:43.945Z,1.00
2019-02-26T22:50:13.684Z,0.90
2019-02-26T22:52:42.141Z,0.90
2019-02-26T22:55:16.160Z,0.90
2019-02-26T22:57:43.333Z,0.90
2019-02-26T23:00:19.190Z,0.90
2019-02-26T23:02:47.641Z,0.90
2019-02-26T23:05:16.162Z,0.90
2019-02-26T23:07:44.681Z,0.90
2019-02-26T23:10:14.454Z,0.90
2019-02-26T23:12:42.925Z,0.90
2019-02-26T23:15:11.961Z,0.90
2019-02-26T23:17:41.129Z,0.90
2019-02-26T23:20:11.166Z,0.80
2019-02-26T23:22:39.612Z,0.80
2019-02-26T23:25:09.632Z,0.80
2019-02-26T23:27:38.109Z,0.80
2019-02-26T23:30:12.175Z,0.80
2019-02-26T23:32:40.696Z,0.80
2019-02-26T23:35:12.197Z,0.80
2019-02-26T23:37:40.615Z,0.70
2019-02-26T23:40:10.834Z,0.60
2019-02-26T23:42:39.735Z,0.60
2019-02-26T23:45:10.177Z,0.60
2019-02-26T23:47:38.745Z,0.50
2019-02-26T23:50:08.588Z,0.50
2019-02-26T23:52:37.100Z,0.50
2019-02-26T23:55:07.365Z,0.40
2019-02-26T23:57:35.777Z,0.50
